Time;durP1;ratioP1;P1;durP2;ratioP2;P2;SDS_P1;SDS_P2;PMS_P1;PMS_P2;Temp;Humidity;BMP_temperature;BMP_pressure;BME280_temperature;BME280_humidity;BME280_pressure;Samples;Min_cycle;Max_cycle;Signal;HPM_P1;HPM_P2
2022/01/13 00:00:57;;;;;;;;;5.75;4.00;;;;;22.66;39.29;103999.19;5027425;28;45465;-75
2022/01/13 00:03:23;;;;;;;;;3.75;3.75;;;;;22.74;38.61;104005.69;5004921;28;45431;-75
2022/01/13 00:05:48;;;;;;;;;4.00;4.00;;;;;22.68;38.83;103999.94;5029682;28;45784;-75
2022/01/13 00:08:14;;;;;;;;;4.75;4.00;;;;;22.74;39.04;104008.34;5016307;28;45410;-75
2022/01/13 00:10:39;;;;;;;;;6.00;4.75;;;;;22.62;39.06;103991.44;5033336;28;45392;-75
2022/01/13 00:13:09;;;;;;;;;6.00;5.00;;;;;22.60;38.96;103987.19;5030480;28;45514;-75
2022/01/13 00:15:48;;;;;;;;;4.25;3.75;;;;;22.74;38.53;104010.97;5032518;28;47399;-75
2022/01/13 00:18:17;;;;;;;;;5.00;5.00;;;;;22.73;39.00;104013.75;5030762;28;45399;-75
2022/01/13 00:23:41;;;;;;;;;5.50;4.00;;;;;22.69;39.08;104022.88;5022157;28;45367;-76
2022/01/13 00:29:03;;;;;;;;;4.75;3.00;;;;;22.45;38.90;103981.16;5031058;28;45408;-75
2022/01/13 00:31:32;;;;;;;;;5.50;4.50;;;;;22.67;38.62;104022.97;5021472;28;45478;-76
2022/01/13 00:34:00;;;;;;;;;4.00;4.00;;;;;22.60;38.77;104008.44;5019679;28;45333;-75
2022/01/13 00:36:28;;;;;;;;;3.00;3.00;;;;;22.69;39.10;104026.34;5029711;28;46283;-75
2022/01/13 00:38:54;;;;;;;;;5.00;5.00;;;;;22.70;38.52;104028.09;5018217;28;45477;-75
2022/01/13 00:41:21;;;;;;;;;5.25;4.25;;;;;22.70;38.69;104017.47;5018258;28;45347;-74
2022/01/13 00:43:47;;;;;;;;;3.00;3.00;;;;;22.69;38.70;104018.38;5032052;28;45249;-75
2022/01/13 00:46:20;;;;;;;;;4.75;3.50;;;;;22.62;38.95;104003.84;5035740;28;46081;-75
2022/01/13 00:48:46;;;;;;;;;5.00;3.50;;;;;22.66;39.09;104010.66;5026200;28;45586;-75
2022/01/13 00:51:12;;;;;;;;;4.75;4.00;;;;;22.53;38.85;103984.13;5029500;28;45303;-75
2022/01/13 00:53:37;;;;;;;;;3.50;3.50;;;;;22.68;38.53;104016.72;5035725;28;45299;-75
2022/01/13 00:56:03;;;;;;;;;4.00;4.00;;;;;22.55;38.46;103989.31;5022415;28;46371;-76
2022/01/13 00:58:31;;;;;;;;;3.00;3.00;;;;;22.67;38.80;104011.50;5027151;28;45635;-76
2022/01/13 01:00:57;;;;;;;;;3.75;3.75;;;;;22.37;39.11;103966.63;5029166;28;45592;-75
2022/01/13 01:03:24;;;;;;;;;3.25;3.25;;;;;22.63;38.39;104003.78;5026600;28;45330;-76
2022/01/13 01:05:49;;;;;;;;;4.00;4.00;;;;;22.65;38.25;104010.75;5031100;28;45441;-75
2022/01/13 01:08:15;;;;;;;;;5.00;3.25;;;;;22.59;38.88;103999.63;5031735;28;45387;-76
2022/01/13 01:10:45;;;;;;;;;6.75;5.00;;;;;22.65;38.29;104006.31;5036373;28;45299;-75
2022/01/13 01:13:16;;;;;;;;;7.50;5.25;;;;;22.64;38.92;103993.97;5035835;28;45470;-75
2022/01/13 01:15:48;;;;;;;;;5.00;5.00;;;;;22.63;38.10;104003.78;5023084;28;49145;-75
2022/01/13 01:19:02;;;;;;;;;5.25;4.00;;;;;22.62;38.37;104002.06;5033087;28;45488;-75
2022/01/13 01:21:32;;;;;;;;;4.75;4.00;;;;;22.63;38.26;103994.94;5019551;28;45493;-76
2022/01/13 01:29:17;;;;;;;;;6.00;4.00;;;;;22.50;38.10;103987.84;5036872;28;45268;-75
2022/01/13 01:31:49;;;;;;;;;5.00;5.00;;;;;22.49;37.94;103985.28;5022502;28;45514;-75
2022/01/13 01:36:42;;;;;;;;;4.00;4.00;;;;;22.56;38.51;103996.34;5027135;28;46349;-76
2022/01/13 01:39:09;;;;;;;;;4.00;2.75;;;;;22.60;38.37;104003.97;5033257;28;45652;-75
2022/01/13 01:41:37;;;;;;;;;5.50;4.25;;;;;22.59;38.66;103991.66;5035575;28;45536;-75
2022/01/13 01:44:11;;;;;;;;;5.00;4.50;;;;;22.58;38.21;103994.41;5022064;28;45616;-76
2022/01/13 01:46:39;;;;;;;;;3.25;3.25;;;;;22.40;37.92;103976.19;5017596;28;46139;-76
2022/01/13 01:49:16;;;;;;;;;4.00;4.00;;;;;22.54;38.11;103990.25;5034528;28;45517;-75
2022/01/13 01:51:46;;;;;;;;;4.00;4.00;;;;;22.51;38.09;103981.56;5035064;28;45391;-76
2022/01/13 01:54:12;;;;;;;;;2.25;2.00;;;;;22.54;38.10;103988.47;5012212;28;45709;-75
2022/01/13 01:56:39;;;;;;;;;4.00;4.00;;;;;22.57;37.95;103993.56;5033604;28;46110;-76
2022/01/13 01:59:11;;;;;;;;;4.25;4.25;;;;;22.52;38.47;103988.59;5030732;28;45411;-76
2022/01/13 02:01:37;;;;;;;;;3.00;3.00;;;;;22.56;38.14;103988.38;5034143;28;45425;-76
2022/01/13 02:04:02;;;;;;;;;3.75;2.75;;;;;22.48;37.97;103981.78;5027216;28;45512;-75
2022/01/13 02:06:28;;;;;;;;;4.00;4.00;;;;;22.57;38.43;103995.38;5027432;28;45487;-76
2022/01/13 02:08:53;;;;;;;;;3.00;3.00;;;;;22.56;38.04;103994.50;5032523;28;45396;-75
2022/01/13 02:11:20;;;;;;;;;5.00;4.00;;;;;22.34;38.21;103969.50;5017724;28;45342;-75
2022/01/13 02:13:50;;;;;;;;;3.50;3.50;;;;;22.56;37.88;103993.69;5027695;28;45695;-76
2022/01/13 02:19:00;;;;;;;;;4.00;3.00;;;;;22.50;38.56;103982.53;5029379;28;45456;-76
2022/01/13 02:21:26;;;;;;;;;3.00;2.75;;;;;22.39;38.00;103962.06;5027284;28;45374;-76
2022/01/13 02:23:55;;;;;;;;;4.50;4.00;;;;;22.54;37.99;103979.66;5034317;28;45373;-76
2022/01/13 02:26:24;;;;;;;;;5.00;2.25;;;;;22.43;38.01;103957.38;5034826;28;48045;-76
2022/01/13 02:28:51;;;;;;;;;6.50;3.75;;;;;22.53;38.25;103981.47;5035880;28;45257;-75
2022/01/13 02:31:18;;;;;;;;;2.50;2.50;;;;;22.52;37.81;103983.28;5034195;28;45503;-75
2022/01/13 02:33:43;;;;;;;;;3.25;3.25;;;;;22.43;37.95;103969.81;5034309;28;45435;-75
2022/01/13 02:36:10;;;;;;;;;3.00;3.00;;;;;22.52;38.10;103985.94;5034672;28;45445;-75
2022/01/13 02:38:35;;;;;;;;;3.00;3.00;;;;;22.51;38.03;103984.22;5033262;28;45402;-76
2022/01/13 02:41:02;;;;;;;;;3.00;3.00;;;;;22.39;37.88;103967.38;5035995;28;45632;-76
2022/01/13 02:43:33;;;;;;;;;4.00;4.00;;;;;22.49;38.22;103991.44;5033108;28;45289;-75
2022/01/13 02:48:35;;;;;;;;;4.00;4.00;;;;;22.50;37.64;103993.16;5033394;28;45501;-75
2022/01/13 02:51:01;;;;;;;;;3.25;3.00;;;;;22.51;38.15;103991.34;5033671;28;45401;-76
2022/01/13 02:53:27;;;;;;;;;4.00;2.75;;;;;22.46;37.80;103980.19;5021641;28;45503;-76
2022/01/13 02:56:11;;;;;;;;;5.75;4.25;;;;;22.50;38.05;103987.84;5021984;28;46908;-75
2022/01/13 02:58:36;;;;;;;;;3.25;3.25;;;;;22.50;37.96;103994.97;5031920;28;45496;-76
2022/01/13 03:01:04;;;;;;;;;3.00;3.00;;;;;22.52;37.58;104001.00;5010811;28;45600;-76
2022/01/13 03:03:31;;;;;;;;;2.75;2.00;;;;;22.34;37.88;103974.78;5017438;28;45479;-76
2022/01/13 03:05:56;;;;;;;;;5.25;4.00;;;;;22.46;38.16;103990.81;5032748;28;45472;-75
2022/01/13 03:08:23;;;;;;;;;3.00;2.25;;;;;22.50;38.01;104003.78;5034336;28;45699;-76
2022/01/13 03:10:49;;;;;;;;;3.25;2.50;;;;;22.50;37.70;104000.25;5031813;28;45374;-76
2022/01/13 03:13:17;;;;;;;;;3.00;2.75;;;;;22.50;37.71;103997.63;5023042;28;45484;-76
2022/01/13 03:15:42;;;;;;;;;3.25;3.25;;;;;22.40;38.04;103984.13;5027783;28;46385;-75
2022/01/13 03:18:07;;;;;;;;;2.50;2.50;;;;;22.46;37.97;103996.97;5013511;28;45454;-75
2022/01/13 03:20:32;;;;;;;;;6.00;5.00;;;;;22.37;37.87;103987.84;5018258;28;45450;-76
2022/01/13 03:22:58;;;;;;;;;2.25;2.25;;;;;22.49;37.84;104006.50;5035964;28;45445;-75
2022/01/13 03:25:24;;;;;;;;;4.00;3.75;;;;;22.48;37.58;103999.53;5034035;28;45971;-75
2022/01/13 03:28:04;;;;;;;;;4.00;4.00;;;;;22.48;37.59;103999.53;5004595;28;45369;-74
2022/01/13 03:30:30;;;;;;;;;3.00;3.00;;;;;22.28;37.77;103961.94;5023933;28;45365;-76
2022/01/13 03:32:55;;;;;;;;;5.25;3.50;;;;;22.45;37.52;103999.72;5034103;28;45570;-75
2022/01/13 03:35:20;;;;;;;;;3.00;3.00;;;;;22.47;37.80;104006.63;5034037;28;46081;-76
2022/01/13 03:37:46;;;;;;;;;3.00;3.00;;;;;22.43;37.73;103999.00;5011204;28;45409;-75
2022/01/13 03:40:12;;;;;;;;;3.00;3.00;;;;;22.47;38.12;104005.78;5030157;28;45270;-76
2022/01/13 03:42:38;;;;;;;;;4.00;2.50;;;;;22.32;37.33;103989.97;5029230;28;45548;-76
2022/01/13 03:45:03;;;;;;;;;2.00;2.00;;;;;22.45;37.48;104003.25;5033797;28;45864;-75
2022/01/13 03:47:29;;;;;;;;;3.75;3.75;;;;;22.29;38.00;103969.81;5019716;28;45593;-76
2022/01/13 03:49:54;;;;;;;;;4.50;3.00;;;;;22.45;37.58;104002.38;5033031;28;45588;-74
2022/01/13 03:52:24;;;;;;;;;4.25;4.00;;;;;22.44;37.26;104000.69;5009065;28;45628;-76
2022/01/13 03:55:11;;;;;;;;;5.50;4.25;;;;;22.43;37.44;103999.81;5024596;28;46380;-75
2022/01/13 03:57:56;;;;;;;;;4.00;3.75;;;;;22.43;37.42;103997.16;5033107;28;45469;-75
2022/01/13 04:00:40;;;;;;;;;4.00;4.00;;;;;22.42;37.41;104003.44;5025796;28;45570;-75
2022/01/13 04:03:06;;;;;;;;;3.50;3.50;;;;;22.40;37.87;103992.09;5018535;28;45512;-75
2022/01/13 04:05:31;;;;;;;;;2.00;2.00;;;;;22.33;37.39;103980.22;5033845;28;46215;-76
2022/01/13 04:07:56;;;;;;;;;4.00;3.00;;;;;22.17;37.91;103966.19;5022465;28;45412;-76
2022/01/13 04:10:29;;;;;;;;;4.25;4.00;;;;;22.40;37.46;103990.28;5015568;28;45248;-76
2022/01/13 04:12:55;;;;;;;;;3.50;2.50;;;;;22.29;37.91;103977.78;5024906;28;45418;-76
2022/01/13 04:15:23;;;;;;;;;4.50;4.00;;;;;22.40;37.33;103998.22;5031042;28;47170;-76
2022/01/13 04:17:48;;;;;;;;;2.00;2.00;;;;;22.43;37.57;104004.31;5033533;28;45553;-76
2022/01/13 04:20:14;;;;;;;;;3.00;2.75;;;;;22.24;37.51;103958.66;5038755;28;45379;-75
2022/01/13 04:22:39;;;;;;;;;4.75;4.75;;;;;22.16;37.70;103945.94;5035053;28;45508;-75
2022/01/13 04:25:06;;;;;;;;;5.25;4.00;;;;;22.42;37.61;103986.69;5030649;28;45487;-76
2022/01/13 04:27:36;;;;;;;;;3.00;3.00;;;;;22.36;37.41;103979.97;5029806;28;45719;-75
2022/01/13 04:32:41;;;;;;;;;4.25;3.00;;;;;22.41;37.50;103991.13;5037287;28;45528;-76
2022/01/13 04:35:07;;;;;;;;;4.00;4.00;;;;;22.34;37.51;103979.25;5038336;28;46144;-76
2022/01/13 04:37:33;;;;;;;;;3.00;3.00;;;;;22.42;37.10;103991.97;5033858;28;45553;-75
2022/01/13 04:39:58;;;;;;;;;2.75;2.75;;;;;22.39;37.03;103995.69;5037190;28;45386;-76
2022/01/13 04:42:26;;;;;;;;;4.25;3.00;;;;;22.36;37.27;103988.78;5034085;28;45351;-76
2022/01/13 04:44:52;;;;;;;;;3.00;3.00;;;;;22.39;37.13;103990.38;5035771;28;47019;-75
2022/01/13 04:47:17;;;;;;;;;2.75;2.75;;;;;22.37;37.15;103989.66;5032035;28;45418;-76
2022/01/13 04:49:42;;;;;;;;;3.00;3.00;;;;;22.28;37.01;103983.16;5035045;28;45467;-75
2022/01/13 04:52:07;;;;;;;;;5.00;3.00;;;;;22.29;37.14;103972.47;5036082;28;45389;-76
2022/01/13 04:54:33;;;;;;;;;3.00;3.00;;;;;22.40;37.39;103986.78;5035218;28;45961;-75
2022/01/13 04:57:15;;;;;;;;;3.00;2.00;;;;;22.12;37.29;103952.38;5017656;28;45294;-73
2022/01/13 04:59:41;;;;;;;;;4.00;3.00;;;;;22.33;37.47;103991.66;5034995;28;45282;-77
2022/01/13 05:02:06;;;;;;;;;3.50;3.50;;;;;22.40;37.19;103994.75;5019427;28;45641;-76
2022/01/13 05:04:32;;;;;;;;;5.00;4.00;;;;;22.20;37.38;103969.59;5033460;28;45636;-76
2022/01/13 05:06:57;;;;;;;;;2.50;2.50;;;;;22.35;37.66;103987.09;5034532;28;45219;-76
2022/01/13 05:09:22;;;;;;;;;3.25;3.25;;;;;22.38;36.95;103991.34;5036802;28;45208;-76
2022/01/13 05:11:48;;;;;;;;;2.00;2.00;;;;;22.37;37.15;103993.16;5033485;28;45366;-75
2022/01/13 05:14:13;;;;;;;;;6.50;4.00;;;;;22.34;37.26;103982.75;5030800;28;46063;-75
2022/01/13 05:19:39;;;;;;;;;3.00;3.00;;;;;22.36;37.36;103987.94;5009983;28;45382;-75
2022/01/13 05:24:35;;;;;;;;;5.00;3.25;;;;;21.96;37.20;103918.97;5001050;28;46054;-76
2022/01/13 05:27:01;;;;;;;;;3.25;3.25;;;;;22.32;37.16;103967.91;5007534;28;45418;-75
2022/01/13 05:29:26;;;;;;;;;3.00;3.00;;;;;22.34;36.91;103977.44;5012273;28;45436;-76
2022/01/13 05:31:51;;;;;;;;;3.00;3.00;;;;;22.26;37.05;103967.38;5009950;28;45391;-75
2022/01/13 05:34:17;;;;;;;;;2.00;2.00;;;;;22.23;37.68;103951.66;5009625;28;45433;-75
2022/01/13 05:36:43;;;;;;;;;2.75;2.75;;;;;22.25;37.03;103959.53;5014249;28;45413;-75
2022/01/13 05:39:10;;;;;;;;;3.00;3.00;;;;;22.20;37.36;103945.72;5006403;28;45460;-75
2022/01/13 05:41:35;;;;;;;;;2.25;2.00;;;;;22.00;36.91;103918.75;5013082;28;45491;-76
2022/01/13 05:44:01;;;;;;;;;3.00;3.00;;;;;22.29;37.14;103964.50;5014672;28;46027;-76
2022/01/13 05:46:26;;;;;;;;;2.00;2.00;;;;;22.32;37.07;103968.75;5012019;28;45466;-76
2022/01/13 05:48:54;;;;;;;;;4.00;4.00;;;;;22.32;37.07;103967.91;5010340;28;45446;-75
2022/01/13 05:51:20;;;;;;;;;3.25;3.25;;;;;22.29;37.10;103959.19;5013385;28;45538;-75
2022/01/13 05:53:46;;;;;;;;;4.00;4.00;;;;;22.36;36.71;103972.03;5011133;28;45456;-76
2022/01/13 05:56:12;;;;;;;;;4.00;2.00;;;;;22.36;36.92;103969.38;4995077;28;45401;-75
2022/01/13 05:58:37;;;;;;;;;2.25;2.25;;;;;22.28;37.00;103948.69;5031234;28;45383;-75
2022/01/13 06:01:03;;;;;;;;;5.00;3.00;;;;;22.35;36.77;103965.88;5029322;28;45369;-76
2022/01/13 06:03:28;;;;;;;;;5.75;4.00;;;;;22.32;37.15;103958.16;5035332;28;45503;-77
2022/01/13 06:05:54;;;;;;;;;2.00;2.00;;;;;22.12;36.63;103925.03;5035706;28;45468;-75
2022/01/13 06:08:19;;;;;;;;;2.00;2.00;;;;;21.99;36.67;103909.13;5020671;28;45474;-75
2022/01/13 06:10:46;;;;;;;;;3.00;2.25;;;;;22.35;36.68;103973.00;5036338;28;45331;-76
2022/01/13 06:13:13;;;;;;;;;3.00;3.00;;;;;22.03;37.00;103930.03;5032277;28;45445;-75
2022/01/13 06:15:39;;;;;;;;;4.00;4.00;;;;;21.69;37.01;103877.47;5034806;28;45469;-76
2022/01/13 06:18:13;;;;;;;;;2.00;2.00;;;;;22.13;36.74;103953.25;5029726;28;45487;-75
2022/01/13 06:20:39;;;;;;;;;2.50;2.50;;;;;22.33;36.75;103986.34;5019740;28;45651;-75
2022/01/13 06:23:07;;;;;;;;;3.00;3.00;;;;;22.05;36.66;103937.84;5030570;28;47061;-75
2022/01/13 06:25:33;;;;;;;;;3.00;3.00;;;;;22.33;36.78;103977.56;5033525;28;45464;-76
2022/01/13 06:27:59;;;;;;;;;4.00;3.00;;;;;21.76;36.89;103901.75;5032745;28;45482;-75
2022/01/13 06:30:24;;;;;;;;;3.00;2.00;;;;;21.83;36.58;103896.88;5033499;28;45488;-76
2022/01/13 06:32:49;;;;;;;;;4.00;3.00;;;;;22.32;36.97;103975.84;5019734;28;46036;-76
2022/01/13 06:35:15;;;;;;;;;5.75;3.75;;;;;21.98;36.47;103937.44;5035682;28;45449;-73
2022/01/13 06:37:41;;;;;;;;;2.00;2.00;;;;;21.60;37.23;103876.28;5034939;28;45226;-76
2022/01/13 06:40:07;;;;;;;;;3.50;3.50;;;;;21.59;36.91;103876.38;5035169;28;45384;-76
2022/01/13 06:42:33;;;;;;;;;6.00;5.75;;;;;22.02;36.87;103943.34;5032847;28;45474;-76
2022/01/13 06:44:59;;;;;;;;;2.00;2.00;;;;;22.04;36.51;103952.09;5029481;28;45624;-76
2022/01/13 06:47:25;;;;;;;;;2.50;2.50;;;;;22.29;36.68;103988.38;5024941;28;45399;-73
2022/01/13 06:49:50;;;;;;;;;2.00;2.00;;;;;21.94;36.88;103926.19;5035951;28;45594;-76
2022/01/13 06:52:17;;;;;;;;;2.00;2.00;;;;;21.82;36.72;103916.38;5034639;28;46092;-74
2022/01/13 06:54:42;;;;;;;;;5.50;3.75;;;;;22.15;36.62;103961.94;5031560;28;45726;-72
2022/01/13 06:57:08;;;;;;;;;3.25;3.00;;;;;22.27;36.99;103987.63;5019661;28;45479;-73
2022/01/13 06:59:34;;;;;;;;;3.00;3.00;;;;;22.25;37.02;103978.91;5035009;28;45545;-69
2022/01/13 07:02:01;;;;;;;;;2.75;2.75;;;;;22.27;36.55;103986.78;5035752;28;46377;-71
2022/01/13 07:04:27;;;;;;;;;5.00;3.00;;;;;22.14;36.85;103966.41;5025780;28;45378;-73
2022/01/13 07:06:52;;;;;;;;;4.00;2.25;;;;;22.23;36.49;103974.66;5030518;28;45551;-75
2022/01/13 07:09:18;;;;;;;;;5.50;4.00;;;;;22.12;36.77;103965.66;5029925;28;45994;-74
2022/01/13 07:11:44;;;;;;;;;4.00;2.75;;;;;22.27;36.92;103986.78;5030036;28;47594;-74
2022/01/13 07:14:10;;;;;;;;;4.00;4.00;;;;;22.27;36.93;103984.13;5031717;28;45417;-76
2022/01/13 07:16:36;;;;;;;;;3.00;2.75;;;;;22.10;36.50;103953.44;5021166;28;45523;-76
2022/01/13 07:19:04;;;;;;;;;3.00;3.00;;;;;22.27;37.04;103986.78;5026679;28;45523;-78
2022/01/13 07:21:29;;;;;;;;;3.25;2.00;;;;;22.13;36.79;103959.41;5033038;28;46287;-78
2022/01/13 07:23:55;;;;;;;;;4.25;3.00;;;;;22.09;37.30;103957.94;5033218;28;45374;-79
2022/01/13 07:26:20;;;;;;;;;2.25;2.25;;;;;22.28;36.86;103986.66;5034769;28;45287;-78
2022/01/13 07:28:46;;;;;;;;;3.25;2.50;;;;;22.28;36.99;103994.63;5034946;28;45502;-75
2022/01/13 07:31:14;;;;;;;;;2.50;2.00;;;;;22.26;37.13;103990.38;5031592;28;46059;-79
2022/01/13 07:33:43;;;;;;;;;3.50;3.50;;;;;22.26;36.85;103998.34;5034622;28;45319;-76
2022/01/13 07:36:08;;;;;;;;;2.25;2.25;;;;;-149.97;100.00;66579.34;5026532;28;45588;-75
2022/01/13 07:38:34;;;;;;;;;6.00;4.25;;;;;-149.97;100.00;66579.34;5033112;28;45406;-75
2022/01/13 07:41:00;;;;;;;;;3.00;3.00;;;;;-149.97;100.00;66579.34;5033490;28;45477;-75
2022/01/13 07:43:26;;;;;;;;;3.00;2.00;;;;;-149.97;100.00;66579.34;5031437;28;45496;-76
2022/01/13 07:45:53;;;;;;;;;4.50;2.00;;;;;-149.97;100.00;66579.34;5032519;28;45406;-74
2022/01/13 07:48:19;;;;;;;;;3.00;3.00;;;;;-149.97;100.00;66579.34;5023422;28;47674;-74
2022/01/13 07:50:44;;;;;;;;;3.00;3.00;;;;;-149.97;100.00;66579.34;5033407;28;45422;-74
2022/01/13 07:53:10;;;;;;;;;5.00;2.50;;;;;-149.97;100.00;66579.34;5035452;28;45605;-73
2022/01/13 07:55:36;;;;;;;;;3.75;3.25;;;;;-149.97;100.00;66579.34;5037364;28;45442;-73
2022/01/13 07:58:01;;;;;;;;;2.75;2.75;;;;;-149.97;100.00;66579.34;5019962;28;45592;-73
2022/01/13 08:00:27;;;;;;;;;4.00;4.00;;;;;-149.97;100.00;66579.34;5034431;28;45578;-73
2022/01/13 08:02:52;;;;;;;;;4.00;3.00;;;;;-149.97;100.00;66579.34;5033439;28;45379;-73
2022/01/13 08:05:17;;;;;;;;;4.75;3.00;;;;;-149.97;100.00;66579.34;5020172;28;45392;-74
2022/01/13 08:07:43;;;;;;;;;4.75;3.00;;;;;-149.97;100.00;66579.34;5035297;28;45512;-73
2022/01/13 08:10:09;;;;;;;;;4.00;2.00;;;;;-149.97;100.00;66579.34;5035190;28;45390;-73
2022/01/13 08:12:34;;;;;;;;;4.25;4.00;;;;;-149.97;100.00;66579.34;5025048;28;45469;-73
2022/01/13 08:15:00;;;;;;;;;3.25;2.25;;;;;-149.97;100.00;66579.34;5015032;28;45525;-73
2022/01/13 08:20:10;;;;;;;;;6.00;3.00;;;;;-149.97;100.00;66579.34;5036031;28;45397;-72
2022/01/13 08:22:35;;;;;;;;;1.50;1.50;;;;;-149.97;100.00;66579.34;5036300;28;45382;-73
2022/01/13 08:25:01;;;;;;;;;3.00;3.00;;;;;-149.97;100.00;66579.34;5034779;28;45446;-73
2022/01/13 08:27:26;;;;;;;;;4.00;4.00;;;;;-149.97;100.00;66579.34;5036418;28;45585;-73
2022/01/13 08:29:52;;;;;;;;;3.25;3.25;;;;;-149.97;100.00;66579.34;5022259;28;47192;-73
2022/01/13 08:32:18;;;;;;;;;3.50;3.50;;;;;-149.97;100.00;66579.34;5033083;28;45322;-73
2022/01/13 08:34:44;;;;;;;;;4.00;3.00;;;;;-149.97;100.00;66579.34;5037240;28;45406;-73
2022/01/13 08:37:10;;;;;;;;;4.00;3.00;;;;;-149.97;100.00;66579.34;5035408;28;45537;-73
2022/01/13 08:39:42;;;;;;;;;4.00;4.00;;;;;-149.97;100.00;66579.34;5026082;28;46300;-72
2022/01/13 08:42:07;;;;;;;;;4.75;2.50;;;;;-149.97;100.00;66579.34;5034910;28;45623;-73
2022/01/13 08:44:33;;;;;;;;;3.00;2.00;;;;;-149.97;100.00;66579.34;5036693;28;45427;-73
2022/01/13 08:46:58;;;;;;;;;5.75;3.25;;;;;-149.97;100.00;66579.34;5037800;28;45403;-73
2022/01/13 08:49:23;;;;;;;;;2.00;2.00;;;;;-149.97;100.00;66579.34;5033654;28;51083;-73
2022/01/13 08:51:51;;;;;;;;;2.75;2.75;;;;;-149.97;100.00;66579.34;5033110;28;45615;-73
2022/01/13 08:54:19;;;;;;;;;2.00;2.00;;;;;-149.97;100.00;66579.34;5034885;28;45438;-73
2022/01/13 08:56:45;;;;;;;;;3.50;2.25;;;;;-149.97;100.00;66579.34;5019050;28;45339;-73
2022/01/13 08:59:10;;;;;;;;;5.75;3.25;;;;;-149.97;100.00;66579.34;5037792;28;46772;-73
2022/01/13 09:01:36;;;;;;;;;4.00;2.50;;;;;-149.97;100.00;66579.34;5017995;28;45515;-73
2022/01/13 09:04:01;;;;;;;;;4.00;4.00;;;;;-149.97;100.00;66579.34;5033584;28;45314;-73
2022/01/13 09:06:27;;;;;;;;;4.50;4.50;;;;;-149.97;100.00;66579.34;5034586;28;45402;-73
2022/01/13 09:08:52;;;;;;;;;3.50;3.25;;;;;-149.97;100.00;66579.34;5032452;28;46116;-72
2022/01/13 09:11:17;;;;;;;;;5.50;3.00;;;;;-149.97;100.00;66579.34;5028793;28;45458;-73
2022/01/13 09:13:43;;;;;;;;;2.25;2.00;;;;;-149.97;100.00;66579.34;5032784;28;45281;-72
2022/01/13 09:16:16;;;;;;;;;3.50;3.25;;;;;-149.97;100.00;66579.34;5036771;28;45399;-73
2022/01/13 09:21:22;;;;;;;;;4.00;3.00;;;;;-149.97;100.00;66579.34;5036417;28;45480;-73
2022/01/13 09:23:47;;;;;;;;;4.00;3.75;;;;;-149.97;100.00;66579.34;5019259;28;45493;-73
2022/01/13 09:26:13;;;;;;;;;3.25;3.25;;;;;-149.97;100.00;66579.34;5031684;28;45390;-73
2022/01/13 09:28:39;;;;;;;;;2.00;2.00;;;;;-149.97;100.00;66579.34;5029724;28;46139;-73
2022/01/13 09:31:05;;;;;;;;;4.50;3.75;;;;;-149.97;100.00;66579.34;5027913;28;45453;-73
2022/01/13 09:33:31;;;;;;;;;4.75;3.00;;;;;-149.97;100.00;66579.34;5033846;28;45485;-73
2022/01/13 09:35:57;;;;;;;;;1.50;1.50;;;;;-149.97;100.00;66579.34;5023906;28;45487;-73
2022/01/13 09:38:22;;;;;;;;;3.25;3.25;;;;;-149.97;100.00;66579.34;5035800;28;46664;-73
2022/01/13 09:40:53;;;;;;;;;2.50;2.50;;;;;-149.97;100.00;66579.34;5036919;28;45434;-73
2022/01/13 09:43:23;;;;;;;;;5.00;5.00;;;;;-149.97;100.00;66579.34;5035690;28;45519;-72
2022/01/13 09:45:49;;;;;;;;;3.50;2.75;;;;;-149.97;100.00;66579.34;5035017;28;45366;-73
2022/01/13 09:48:15;;;;;;;;;3.50;3.00;;;;;-149.97;100.00;66579.34;5034714;28;45345;-73
2022/01/13 09:50:43;;;;;;;;;0.50;0.50;;;;;-149.97;100.00;66579.34;5034233;28;45289;-73
2022/01/13 09:53:08;;;;;;;;;1.75;1.75;;;;;-149.97;100.00;66579.34;5036662;28;46457;-73
2022/01/13 09:55:34;;;;;;;;;4.75;3.00;;;;;-149.97;100.00;66579.34;5034917;28;45529;-73
2022/01/13 09:58:03;;;;;;;;;2.00;2.00;;;;;-149.97;100.00;66579.34;5033311;28;46001;-73
2022/01/13 10:00:29;;;;;;;;;2.00;2.00;;;;;-149.97;100.00;66579.34;5035045;28;45377;-73
2022/01/13 10:02:55;;;;;;;;;5.00;5.00;;;;;-149.97;100.00;66579.34;5036195;28;45231;-73
2022/01/13 10:05:23;;;;;;;;;5.75;4.00;;;;;-149.97;100.00;66579.34;5035534;28;45479;-73
2022/01/13 10:07:50;;;;;;;;;5.00;3.75;;;;;-149.97;100.00;66579.34;5035253;28;47207;-73
2022/01/13 10:10:19;;;;;;;;;2.75;2.75;;;;;-149.97;100.00;66579.34;5032961;28;45497;-73
2022/01/13 10:12:58;;;;;;;;;3.25;3.25;;;;;-149.97;100.00;66579.34;5025100;28;45389;-73
2022/01/13 10:18:07;;;;;;;;;3.00;3.00;;;;;-149.97;100.00;66579.34;5035461;28;45498;-72
2022/01/13 10:20:33;;;;;;;;;6.50;5.75;;;;;-149.97;100.00;66579.34;5035311;28;45508;-73
2022/01/13 10:23:09;;;;;;;;;3.00;3.00;;;;;-149.97;100.00;66579.34;5032148;28;45427;-73
2022/01/13 10:25:43;;;;;;;;;3.00;3.00;;;;;-149.97;100.00;66579.34;5035184;28;45466;-73
2022/01/13 10:28:20;;;;;;;;;4.25;2.50;;;;;-149.97;100.00;66579.34;5032998;28;46663;-74
2022/01/13 10:30:49;;;;;;;;;5.00;5.00;;;;;-149.97;100.00;66579.34;5031391;28;45524;-74
2022/01/13 10:33:27;;;;;;;;;3.50;3.50;;;;;-149.97;100.00;66579.34;5021559;28;45512;-73
2022/01/13 10:35:54;;;;;;;;;3.00;3.00;;;;;-149.97;100.00;66579.34;5032795;28;45508;-73
2022/01/13 10:38:21;;;;;;;;;4.00;4.00;;;;;-149.97;100.00;66579.34;5035229;28;46939;-73
2022/01/13 10:40:49;;;;;;;;;4.25;1.00;;;;;-149.97;100.00;66579.34;5035661;28;45311;-74
2022/01/13 10:43:24;;;;;;;;;5.50;4.75;;;;;-149.97;100.00;66579.34;5032015;28;45436;-74
2022/01/13 10:45:49;;;;;;;;;6.00;5.00;;;;;-149.97;100.00;66579.34;5031665;28;45351;-73
2022/01/13 10:48:28;;;;;;;;;3.50;3.50;;;;;-149.97;100.00;66579.34;5023773;28;47015;-73
2022/01/13 10:50:59;;;;;;;;;3.50;3.50;;;;;-149.97;100.00;66579.34;5019567;28;45338;-73
2022/01/13 10:53:31;;;;;;;;;3.00;3.00;;;;;-149.97;100.00;66579.34;5034250;28;45371;-73
2022/01/13 10:56:06;;;;;;;;;4.00;4.00;;;;;-149.97;100.00;66579.34;5035350;28;45498;-73
2022/01/13 10:58:41;;;;;;;;;6.00;5.00;;;;;-149.97;100.00;66579.34;5030822;28;45436;-74
2022/01/13 11:01:11;;;;;;;;;5.00;3.50;;;;;-149.97;100.00;66579.34;5027640;28;50561;-73
2022/01/13 11:03:40;;;;;;;;;4.00;4.00;;;;;-149.97;100.00;66579.34;5025021;28;45468;-73
2022/01/13 11:06:08;;;;;;;;;3.00;3.00;;;;;-149.97;100.00;66579.34;5033555;28;45465;-73
2022/01/13 11:08:44;;;;;;;;;3.00;3.00;;;;;-149.97;100.00;66579.34;5033172;28;46115;-73
2022/01/13 11:11:41;;;;;;;;;3.25;3.25;;;;;-149.97;100.00;66579.34;5030849;28;45373;-73
2022/01/13 11:14:14;;;;;;;;;4.25;3.75;;;;;-149.97;100.00;66579.34;5026283;28;45373;-74
2022/01/13 11:16:39;;;;;;;;;3.00;2.50;;;;;-149.97;100.00;66579.34;5031049;28;45765;-74
2022/01/13 11:19:06;;;;;;;;;5.00;5.00;;;;;-149.97;100.00;66579.34;5032441;28;46136;-73
2022/01/13 11:21:32;;;;;;;;;2.50;2.00;;;;;-149.97;100.00;66579.34;5033558;28;45417;-73
2022/01/13 11:24:00;;;;;;;;;3.50;3.50;;;;;-149.97;100.00;66579.34;5031307;28;45175;-73
2022/01/13 11:26:30;;;;;;;;;5.75;3.50;;;;;-149.97;100.00;66579.34;5034195;28;45432;-74
2022/01/13 11:28:57;;;;;;;;;1.50;1.50;;;;;-149.97;100.00;66579.34;5031192;28;46959;-73
2022/01/13 11:31:23;;;;;;;;;4.50;4.50;;;;;-149.97;100.00;66579.34;5026062;28;45836;-74
2022/01/13 11:33:50;;;;;;;;;3.25;3.25;;;;;-149.97;100.00;66579.34;5016099;28;45368;-73
2022/01/13 11:36:16;;;;;;;;;2.25;2.25;;;;;-149.97;100.00;66579.34;5033576;28;45401;-73
2022/01/13 11:38:53;;;;;;;;;5.00;3.00;;;;;-149.97;100.00;66579.34;5032440;28;45349;-73
2022/01/13 11:41:19;;;;;;;;;5.00;3.00;;;;;-149.97;100.00;66579.34;5026968;28;45374;-73
2022/01/13 11:43:44;;;;;;;;;3.00;3.00;;;;;-149.97;100.00;66579.34;5033917;28;45251;-74
2022/01/13 11:46:12;;;;;;;;;3.25;3.25;;;;;-149.97;100.00;66579.34;5030924;28;45219;-73
2022/01/13 11:48:42;;;;;;;;;3.00;3.00;;;;;-149.97;100.00;66579.34;5031807;28;47223;-73
2022/01/13 11:51:18;;;;;;;;;3.00;2.75;;;;;-149.97;100.00;66579.34;5033936;28;45596;-73
2022/01/13 11:53:55;;;;;;;;;3.25;3.00;;;;;-149.97;100.00;66579.34;5034297;28;45363;-74
2022/01/13 11:56:22;;;;;;;;;5.75;4.00;;;;;-149.97;100.00;66579.34;5029722;28;45319;-74